# Tabular Observed and Forecast Hydrograph Information
#
# Location: Deer Creek - Vina (DCVC1)
#
# File Generation Time: 05/02/2026 at 07:34 AM PDT
# Data Interval: 1 Hour
#
# Most Recent Date & Time of Maximum Observed: 04/27/2026 at 07:00 AM PDT
# Maximum Observed Stage: 2.28 Feet
# Maximum Observed Flow: 501 cfs
#
# Earliest Date & Time of Maximum Forecast: 05/05/2026 at 04:00 AM PDT
# Maximum Forecast Stage: 2.05 Feet
# Maximum Forecast Flow: 417 cfs
#
# OBSERVED
#
# Date & Time (Local) Stage (Feet) Flow (cfs) Trend Observed Status
# ---------------------------------------------------------------------------------
04/27/2026 07 AM PDT 2.28 501 Not Applicable
04/27/2026 08 AM PDT 2.27 497 - Not Applicable
04/27/2026 09 AM PDT 2.26 494 - Not Applicable
04/27/2026 10 AM PDT 2.27 497 + Not Applicable
04/27/2026 11 AM PDT 2.27 497 0 Not Applicable
04/27/2026 12 PM PDT 2.27 497 0 Not Applicable
04/27/2026 01 PM PDT 2.26 494 - Not Applicable
04/27/2026 02 PM PDT 2.26 494 0 Not Applicable
04/27/2026 03 PM PDT 2.25 490 - Not Applicable
04/27/2026 04 PM PDT 2.24 486 - Not Applicable
04/27/2026 05 PM PDT 2.23 482 - Not Applicable
04/27/2026 06 PM PDT 2.24 486 + Not Applicable
04/27/2026 07 PM PDT 2.23 482 - Not Applicable
04/27/2026 08 PM PDT 2.22 478 - Not Applicable
04/27/2026 09 PM PDT 2.22 478 0 Not Applicable
04/27/2026 10 PM PDT 2.22 478 0 Not Applicable
04/27/2026 11 PM PDT 2.23 482 + Not Applicable
04/28/2026 12 AM PDT 2.22 478 - Not Applicable
04/28/2026 01 AM PDT 2.21 475 - Not Applicable
04/28/2026 02 AM PDT 2.21 475 0 Not Applicable
04/28/2026 03 AM PDT 2.21 475 0 Not Applicable
04/28/2026 04 AM PDT 2.20 471 - Not Applicable
04/28/2026 05 AM PDT 2.20 471 0 Not Applicable
04/28/2026 06 AM PDT 2.20 471 0 Not Applicable
04/28/2026 07 AM PDT 2.20 471 0 Not Applicable
04/28/2026 08 AM PDT 2.20 471 0 Not Applicable
04/28/2026 09 AM PDT 2.20 471 0 Not Applicable
04/28/2026 10 AM PDT 2.19 467 - Not Applicable
04/28/2026 11 AM PDT 2.19 467 0 Not Applicable
04/28/2026 12 PM PDT 2.20 471 + Not Applicable
04/28/2026 01 PM PDT 2.18 464 - Not Applicable
04/28/2026 02 PM PDT 2.17 460 - Not Applicable
04/28/2026 03 PM PDT 2.17 460 0 Not Applicable
04/28/2026 04 PM PDT 2.17 460 0 Not Applicable
04/28/2026 05 PM PDT 2.15 452 - Not Applicable
04/28/2026 06 PM PDT 2.15 452 0 Not Applicable
04/28/2026 07 PM PDT 2.15 452 0 Not Applicable
04/28/2026 08 PM PDT 2.14 449 - Not Applicable
04/28/2026 09 PM PDT 2.14 449 0 Not Applicable
04/28/2026 10 PM PDT 2.13 445 - Not Applicable
04/28/2026 11 PM PDT 2.13 445 0 Not Applicable
04/29/2026 12 AM PDT 2.13 445 0 Not Applicable
04/29/2026 01 AM PDT 2.12 442 - Not Applicable
04/29/2026 02 AM PDT 2.12 442 0 Not Applicable
04/29/2026 03 AM PDT 2.11 438 - Not Applicable
04/29/2026 04 AM PDT 2.11 438 0 Not Applicable
04/29/2026 05 AM PDT 2.10 434 - Not Applicable
04/29/2026 06 AM PDT 2.10 434 0 Not Applicable
04/29/2026 07 AM PDT 2.11 438 + Not Applicable
04/29/2026 08 AM PDT 2.11 438 0 Not Applicable
04/29/2026 09 AM PDT 2.10 434 - Not Applicable
04/29/2026 10 AM PDT 2.11 438 + Not Applicable
04/29/2026 11 AM PDT 2.11 438 0 Not Applicable
04/29/2026 12 PM PDT 2.10 434 - Not Applicable
04/29/2026 01 PM PDT 2.10 434 0 Not Applicable
04/29/2026 02 PM PDT 2.09 431 - Not Applicable
04/29/2026 03 PM PDT 2.10 434 + Not Applicable
04/29/2026 04 PM PDT 2.09 431 - Not Applicable
04/29/2026 05 PM PDT 2.08 427 - Not Applicable
04/29/2026 06 PM PDT 2.08 427 0 Not Applicable
04/29/2026 07 PM PDT 2.07 424 - Not Applicable
04/29/2026 08 PM PDT 2.06 420 - Not Applicable
04/29/2026 09 PM PDT 2.06 420 0 Not Applicable
04/29/2026 10 PM PDT 2.05 417 - Not Applicable
04/29/2026 11 PM PDT 2.05 417 0 Not Applicable
04/30/2026 12 AM PDT 2.04 413 - Not Applicable
04/30/2026 01 AM PDT 2.04 413 0 Not Applicable
04/30/2026 02 AM PDT 2.05 417 + Not Applicable
04/30/2026 03 AM PDT 2.04 413 - Not Applicable
04/30/2026 04 AM PDT 2.03 410 - Not Applicable
04/30/2026 05 AM PDT 2.04 413 + Not Applicable
04/30/2026 06 AM PDT 2.03 410 - Not Applicable
04/30/2026 07 AM PDT 2.02 406 - Not Applicable
04/30/2026 08 AM PDT 2.03 410 + Not Applicable
04/30/2026 09 AM PDT 2.03 410 0 Not Applicable
04/30/2026 10 AM PDT 2.03 410 0 Not Applicable
04/30/2026 11 AM PDT 2.03 410 0 Not Applicable
04/30/2026 12 PM PDT 2.03 410 0 Not Applicable
04/30/2026 01 PM PDT 2.02 406 - Not Applicable
04/30/2026 02 PM PDT 2.01 403 - Not Applicable
04/30/2026 03 PM PDT 2.02 406 + Not Applicable
04/30/2026 04 PM PDT 2.02 406 0 Not Applicable
04/30/2026 05 PM PDT 2.01 403 - Not Applicable
04/30/2026 06 PM PDT 2.00 399 - Not Applicable
04/30/2026 07 PM PDT 2.00 399 0 Not Applicable
04/30/2026 08 PM PDT 2.00 399 0 Not Applicable
04/30/2026 09 PM PDT 1.99 396 - Not Applicable
04/30/2026 10 PM PDT 1.98 392 - Not Applicable
04/30/2026 11 PM PDT 1.98 392 0 Not Applicable
05/01/2026 12 AM PDT 1.98 392 0 Not Applicable
05/01/2026 01 AM PDT 1.97 389 - Not Applicable
05/01/2026 02 AM PDT 1.97 389 0 Not Applicable
05/01/2026 03 AM PDT 1.97 389 0 Not Applicable
05/01/2026 04 AM PDT 1.96 385 - Not Applicable
05/01/2026 05 AM PDT 1.97 389 + Not Applicable
05/01/2026 06 AM PDT 1.96 385 - Not Applicable
05/01/2026 07 AM PDT 1.95 382 - Not Applicable
05/01/2026 08 AM PDT 1.96 385 + Not Applicable
05/01/2026 09 AM PDT 1.97 389 + Not Applicable
05/01/2026 10 AM PDT 1.96 385 - Not Applicable
05/01/2026 11 AM PDT 1.97 389 + Not Applicable
05/01/2026 12 PM PDT 1.96 385 - Not Applicable
05/01/2026 01 PM PDT 1.95 382 - Not Applicable
05/01/2026 02 PM PDT 1.96 385 + Not Applicable
05/01/2026 03 PM PDT 1.96 385 0 Not Applicable
05/01/2026 04 PM PDT 1.95 382 - Not Applicable
05/01/2026 05 PM PDT 1.95 382 0 Not Applicable
05/01/2026 06 PM PDT 1.95 382 0 Not Applicable
05/01/2026 07 PM PDT 1.94 379 - Not Applicable
05/01/2026 08 PM PDT 1.93 375 - Not Applicable
05/01/2026 09 PM PDT 1.93 375 0 Not Applicable
05/01/2026 10 PM PDT 1.93 375 0 Not Applicable
05/01/2026 11 PM PDT 1.92 372 - Not Applicable
05/02/2026 12 AM PDT 1.92 372 0 Not Applicable
05/02/2026 01 AM PDT 1.91 369 - Not Applicable
05/02/2026 02 AM PDT 1.91 369 0 Not Applicable
05/02/2026 03 AM PDT 1.92 372 + Not Applicable
05/02/2026 04 AM PDT 1.91 369 - Not Applicable
05/02/2026 05 AM PDT 1.91 369 0 Not Applicable
05/02/2026 06 AM PDT 1.91 369 0 Not Applicable
05/02/2026 07 AM PDT 1.91 369 0 Not Applicable
#
# FORECAST
#
# Date & Time (Local) Stage (Feet) Flow (cfs) Trend Forecast Status
# ---------------------------------------------------------------------------------
05/02/2026 08 AM PDT 1.90 365 Not Applicable
05/02/2026 09 AM PDT 1.90 365 0 Not Applicable
05/02/2026 10 AM PDT 1.90 365 0 Not Applicable
05/02/2026 11 AM PDT 1.89 362 - Not Applicable
05/02/2026 12 PM PDT 1.89 362 0 Not Applicable
05/02/2026 01 PM PDT 1.89 362 0 Not Applicable
05/02/2026 02 PM PDT 1.88 359 - Not Applicable
05/02/2026 03 PM PDT 1.88 359 0 Not Applicable
05/02/2026 04 PM PDT 1.87 355 - Not Applicable
05/02/2026 05 PM PDT 1.87 355 0 Not Applicable
05/02/2026 06 PM PDT 1.86 352 - Not Applicable
05/02/2026 07 PM PDT 1.86 352 0 Not Applicable
05/02/2026 08 PM PDT 1.86 352 0 Not Applicable
05/02/2026 09 PM PDT 1.85 349 - Not Applicable
05/02/2026 10 PM PDT 1.85 349 0 Not Applicable
05/02/2026 11 PM PDT 1.85 349 0 Not Applicable
05/03/2026 12 AM PDT 1.84 346 - Not Applicable
05/03/2026 01 AM PDT 1.84 346 0 Not Applicable
05/03/2026 02 AM PDT 1.83 342 - Not Applicable
05/03/2026 03 AM PDT 1.83 342 0 Not Applicable
05/03/2026 04 AM PDT 1.83 342 0 Not Applicable
05/03/2026 05 AM PDT 1.82 339 - Not Applicable
05/03/2026 06 AM PDT 1.82 339 0 Not Applicable
05/03/2026 07 AM PDT 1.81 336 - Not Applicable
05/03/2026 08 AM PDT 1.81 336 0 Not Applicable
05/03/2026 09 AM PDT 1.81 336 0 Not Applicable
05/03/2026 10 AM PDT 1.80 333 - Not Applicable
05/03/2026 11 AM PDT 1.80 333 0 Not Applicable
05/03/2026 12 PM PDT 1.79 330 - Not Applicable
05/03/2026 01 PM PDT 1.79 330 0 Not Applicable
05/03/2026 02 PM PDT 1.79 330 0 Not Applicable
05/03/2026 03 PM PDT 1.79 330 0 Not Applicable
05/03/2026 04 PM PDT 1.79 330 0 Not Applicable
05/03/2026 05 PM PDT 1.80 333 + Not Applicable
05/03/2026 06 PM PDT 1.82 339 + Not Applicable
05/03/2026 07 PM PDT 1.84 346 + Not Applicable
05/03/2026 08 PM PDT 1.86 352 + Not Applicable
05/03/2026 09 PM PDT 1.88 359 + Not Applicable
05/03/2026 10 PM PDT 1.89 362 + Not Applicable
05/03/2026 11 PM PDT 1.90 365 + Not Applicable
05/04/2026 12 AM PDT 1.91 369 + Not Applicable
05/04/2026 01 AM PDT 1.91 369 0 Not Applicable
05/04/2026 02 AM PDT 1.92 372 + Not Applicable
05/04/2026 03 AM PDT 1.92 372 0 Not Applicable
05/04/2026 04 AM PDT 1.92 372 0 Not Applicable
05/04/2026 05 AM PDT 1.92 372 0 Not Applicable
05/04/2026 06 AM PDT 1.92 372 0 Not Applicable
05/04/2026 07 AM PDT 1.92 372 0 Not Applicable
05/04/2026 08 AM PDT 1.92 372 0 Not Applicable
05/04/2026 09 AM PDT 1.92 372 0 Not Applicable
05/04/2026 10 AM PDT 1.92 372 0 Not Applicable
05/04/2026 11 AM PDT 1.93 375 + Not Applicable
05/04/2026 12 PM PDT 1.93 375 0 Not Applicable
05/04/2026 01 PM PDT 1.94 379 + Not Applicable
05/04/2026 02 PM PDT 1.94 379 0 Not Applicable
05/04/2026 03 PM PDT 1.95 382 + Not Applicable
05/04/2026 04 PM PDT 1.96 385 + Not Applicable
05/04/2026 05 PM PDT 1.97 389 + Not Applicable
05/04/2026 06 PM PDT 1.98 392 + Not Applicable
05/04/2026 07 PM PDT 1.99 396 + Not Applicable
05/04/2026 08 PM PDT 1.99 396 0 Not Applicable
05/04/2026 09 PM PDT 2.00 399 + Not Applicable
05/04/2026 10 PM PDT 2.01 403 + Not Applicable
05/04/2026 11 PM PDT 2.02 406 + Not Applicable
05/05/2026 12 AM PDT 2.03 410 + Not Applicable
05/05/2026 01 AM PDT 2.03 410 0 Not Applicable
05/05/2026 02 AM PDT 2.04 413 + Not Applicable
05/05/2026 03 AM PDT 2.04 413 0 Not Applicable
05/05/2026 04 AM PDT 2.05 417 + Not Applicable
05/05/2026 05 AM PDT 2.05 417 0 Not Applicable
05/05/2026 06 AM PDT 2.04 413 - Not Applicable
05/05/2026 07 AM PDT 2.04 413 0 Not Applicable
05/05/2026 08 AM PDT 2.04 413 0 Not Applicable
05/05/2026 09 AM PDT 2.04 413 0 Not Applicable
05/05/2026 10 AM PDT 2.03 410 - Not Applicable
05/05/2026 11 AM PDT 2.03 410 0 Not Applicable
05/05/2026 12 PM PDT 2.02 406 - Not Applicable
05/05/2026 01 PM PDT 2.02 406 0 Not Applicable
05/05/2026 02 PM PDT 2.01 403 - Not Applicable
05/05/2026 03 PM PDT 2.00 399 - Not Applicable
05/05/2026 04 PM PDT 2.00 399 0 Not Applicable
05/05/2026 05 PM PDT 1.99 396 - Not Applicable
05/05/2026 06 PM PDT 1.99 396 0 Not Applicable
05/05/2026 07 PM PDT 1.98 392 - Not Applicable
05/05/2026 08 PM PDT 1.97 389 - Not Applicable
05/05/2026 09 PM PDT 1.97 389 0 Not Applicable
05/05/2026 10 PM PDT 1.96 385 - Not Applicable
05/05/2026 11 PM PDT 1.96 385 0 Not Applicable
05/06/2026 12 AM PDT 1.95 382 - Not Applicable
05/06/2026 01 AM PDT 1.95 382 0 Not Applicable
05/06/2026 02 AM PDT 1.95 382 0 Not Applicable
05/06/2026 03 AM PDT 1.94 379 - Not Applicable
05/06/2026 04 AM PDT 1.94 379 0 Not Applicable
05/06/2026 05 AM PDT 1.93 375 - Not Applicable
05/06/2026 06 AM PDT 1.93 375 0 Not Applicable
05/06/2026 07 AM PDT 1.93 375 0 Not Applicable
05/06/2026 08 AM PDT 1.92 372 - Not Applicable
05/06/2026 09 AM PDT 1.92 372 0 Not Applicable
05/06/2026 10 AM PDT 1.91 369 - Not Applicable
05/06/2026 11 AM PDT 1.91 369 0 Not Applicable
05/06/2026 12 PM PDT 1.91 369 0 Not Applicable
05/06/2026 01 PM PDT 1.90 365 - Not Applicable
05/06/2026 02 PM PDT 1.90 365 0 Not Applicable
05/06/2026 03 PM PDT 1.89 362 - Not Applicable
05/06/2026 04 PM PDT 1.89 362 0 Not Applicable
05/06/2026 05 PM PDT 1.89 362 0 Not Applicable
05/06/2026 06 PM PDT 1.88 359 - Not Applicable
05/06/2026 07 PM PDT 1.88 359 0 Not Applicable
05/06/2026 08 PM PDT 1.88 359 0 Not Applicable
05/06/2026 09 PM PDT 1.87 355 - Not Applicable
05/06/2026 10 PM PDT 1.87 355 0 Not Applicable
05/06/2026 11 PM PDT 1.86 352 - Not Applicable
05/07/2026 12 AM PDT 1.86 352 0 Not Applicable
05/07/2026 01 AM PDT 1.86 352 0 Not Applicable
05/07/2026 02 AM PDT 1.85 349 - Not Applicable
05/07/2026 03 AM PDT 1.85 349 0 Not Applicable
05/07/2026 04 AM PDT 1.85 349 0 Not Applicable
05/07/2026 05 AM PDT 1.84 346 - Not Applicable
#
# NOTE 1: Stages are rounded to the nearest hundredth (.01) of a foot.
# NOTE 2: Flows are rounded to the nearest (1) cfs.
# NOTE 3: Trends are determined using hourly change in unrounded stage and flow.
# NOTE 4: Maximum Values are determined using unrounded stage and flow.
|